sensor_id;sensor_type;location;lat;lon;timestamp;temperature;humidity
3644;DHT22;1838;50.742;7.158;2024-01-16T00:02:21;2.60;99.90
3644;DHT22;1838;50.742;7.158;2024-01-16T00:04:47;2.60;99.90
3644;DHT22;1838;50.742;7.158;2024-01-16T00:07:13;2.60;99.90
3644;DHT22;1838;50.742;7.158;2024-01-16T00:09:38;2.50;99.90
3644;DHT22;1838;50.742;7.158;2024-01-16T00:12:04;2.50;99.90
3644;DHT22;1838;50.742;7.158;2024-01-16T00:14:29;2.50;99.90
3644;DHT22;1838;50.742;7.158;2024-01-16T00:16:55;2.50;99.90
3644;DHT22;1838;50.742;7.158;2024-01-16T00:19:20;2.60;99.90
3644;DHT22;1838;50.742;7.158;2024-01-16T00:21:46;2.60;99.90
3644;DHT22;1838;50.742;7.158;2024-01-16T00:24:13;2.60;99.90
3644;DHT22;1838;50.742;7.158;2024-01-16T00:26:39;2.60;99.90
3644;DHT22;1838;50.742;7.158;2024-01-16T00:29:04;2.60;99.90
3644;DHT22;1838;50.742;7.158;2024-01-16T00:31:30;2.60;99.90
3644;DHT22;1838;50.742;7.158;2024-01-16T00:33:56;2.50;99.90
3644;DHT22;1838;50.742;7.158;2024-01-16T00:36:21;2.60;99.90
3644;DHT22;1838;50.742;7.158;2024-01-16T00:38:47;2.70;99.90
3644;DHT22;1838;50.742;7.158;2024-01-16T00:41:13;2.70;99.90
3644;DHT22;1838;50.742;7.158;2024-01-16T00:43:40;2.60;99.90
3644;DHT22;1838;50.742;7.158;2024-01-16T00:46:06;2.60;99.90
3644;DHT22;1838;50.742;7.158;2024-01-16T00:48:31;2.60;99.90
3644;DHT22;1838;50.742;7.158;2024-01-16T00:50:57;2.50;99.90
3644;DHT22;1838;50.742;7.158;2024-01-16T00:53:23;2.60;99.90
3644;DHT22;1838;50.742;7.158;2024-01-16T00:55:48;2.60;99.90
3644;DHT22;1838;50.742;7.158;2024-01-16T00:58:14;2.60;99.90
3644;DHT22;1838;50.742;7.158;2024-01-16T01:00:39;2.60;99.90
3644;DHT22;1838;50.742;7.158;2024-01-16T01:03:05;2.60;99.90
3644;DHT22;1838;50.742;7.158;2024-01-16T01:05:30;2.60;99.90
3644;DHT22;1838;50.742;7.158;2024-01-16T01:07:56;2.60;99.90
3644;DHT22;1838;50.742;7.158;2024-01-16T01:10:23;2.60;99.90
3644;DHT22;1838;50.742;7.158;2024-01-16T01:12:49;2.60;99.90
3644;DHT22;1838;50.742;7.158;2024-01-16T01:15:14;2.60;99.90
3644;DHT22;1838;50.742;7.158;2024-01-16T01:17:40;2.60;99.90
3644;DHT22;1838;50.742;7.158;2024-01-16T01:20:07;2.70;99.90
3644;DHT22;1838;50.742;7.158;2024-01-16T01:22:33;2.70;99.90
3644;DHT22;1838;50.742;7.158;2024-01-16T01:24:59;2.60;99.90
3644;DHT22;1838;50.742;7.158;2024-01-16T01:27:24;2.60;99.90
3644;DHT22;1838;50.742;7.158;2024-01-16T01:29:50;2.50;99.90
3644;DHT22;1838;50.742;7.158;2024-01-16T01:32:15;2.60;99.90
3644;DHT22;1838;50.742;7.158;2024-01-16T01:34:42;2.60;99.90
3644;DHT22;1838;50.742;7.158;2024-01-16T01:37:07;2.50;99.90
3644;DHT22;1838;50.742;7.158;2024-01-16T01:39:33;2.50;99.90
3644;DHT22;1838;50.742;7.158;2024-01-16T01:41:59;2.50;99.90
3644;DHT22;1838;50.742;7.158;2024-01-16T01:44:24;2.50;99.90
3644;DHT22;1838;50.742;7.158;2024-01-16T01:46:51;2.50;99.90
3644;DHT22;1838;50.742;7.158;2024-01-16T01:49:19;2.50;99.90
3644;DHT22;1838;50.742;7.158;2024-01-16T01:51:45;2.50;99.90
3644;DHT22;1838;50.742;7.158;2024-01-16T01:54:11;2.50;99.90
3644;DHT22;1838;50.742;7.158;2024-01-16T01:56:37;2.60;99.90
3644;DHT22;1838;50.742;7.158;2024-01-16T01:59:03;2.60;99.90
3644;DHT22;1838;50.742;7.158;2024-01-16T02:01:31;2.60;99.90
3644;DHT22;1838;50.742;7.158;2024-01-16T02:03:57;2.60;99.90
3644;DHT22;1838;50.742;7.158;2024-01-16T02:06:24;2.60;99.90
3644;DHT22;1838;50.742;7.158;2024-01-16T02:08:51;2.60;99.90
3644;DHT22;1838;50.742;7.158;2024-01-16T02:11:16;2.60;99.90
3644;DHT22;1838;50.742;7.158;2024-01-16T02:13:42;2.60;99.90
3644;DHT22;1838;50.742;7.158;2024-01-16T02:16:18;2.50;99.90
3644;DHT22;1838;50.742;7.158;2024-01-16T02:18:44;2.50;99.90
3644;DHT22;1838;50.742;7.158;2024-01-16T02:21:20;2.50;99.90
3644;DHT22;1838;50.742;7.158;2024-01-16T02:23:46;2.50;99.90
3644;DHT22;1838;50.742;7.158;2024-01-16T02:26:17;2.50;99.90
3644;DHT22;1838;50.742;7.158;2024-01-16T02:28:43;2.40;99.90
3644;DHT22;1838;50.742;7.158;2024-01-16T02:31:08;2.40;99.90
3644;DHT22;1838;50.742;7.158;2024-01-16T02:33:34;2.40;99.90
3644;DHT22;1838;50.742;7.158;2024-01-16T02:36:00;2.40;99.90
3644;DHT22;1838;50.742;7.158;2024-01-16T02:38:25;2.40;99.90
3644;DHT22;1838;50.742;7.158;2024-01-16T02:40:51;2.40;99.90
3644;DHT22;1838;50.742;7.158;2024-01-16T02:43:16;2.40;99.90
3644;DHT22;1838;50.742;7.158;2024-01-16T02:45:42;2.40;99.90
3644;DHT22;1838;50.742;7.158;2024-01-16T02:48:08;2.40;99.90
3644;DHT22;1838;50.742;7.158;2024-01-16T02:50:34;2.40;99.90
3644;DHT22;1838;50.742;7.158;2024-01-16T02:52:59;2.40;99.90
3644;DHT22;1838;50.742;7.158;2024-01-16T02:55:25;2.40;99.90
3644;DHT22;1838;50.742;7.158;2024-01-16T02:57:50;2.50;99.90
3644;DHT22;1838;50.742;7.158;2024-01-16T03:00:16;2.50;99.90
3644;DHT22;1838;50.742;7.158;2024-01-16T03:02:43;2.50;99.90
3644;DHT22;1838;50.742;7.158;2024-01-16T03:05:09;2.50;99.90
3644;DHT22;1838;50.742;7.158;2024-01-16T03:07:36;2.50;99.90
3644;DHT22;1838;50.742;7.158;2024-01-16T03:10:01;2.50;99.90
3644;DHT22;1838;50.742;7.158;2024-01-16T03:12:27;2.40;99.90
3644;DHT22;1838;50.742;7.158;2024-01-16T03:14:53;2.40;99.90
3644;DHT22;1838;50.742;7.158;2024-01-16T03:17:19;2.40;99.90
3644;DHT22;1838;50.742;7.158;2024-01-16T03:19:44;2.40;99.90
3644;DHT22;1838;50.742;7.158;2024-01-16T03:22:10;2.50;99.90
3644;DHT22;1838;50.742;7.158;2024-01-16T03:24:36;2.40;99.90
3644;DHT22;1838;50.742;7.158;2024-01-16T03:27:02;2.40;99.90
3644;DHT22;1838;50.742;7.158;2024-01-16T03:29:29;2.40;99.90
3644;DHT22;1838;50.742;7.158;2024-01-16T03:31:55;2.40;99.90
3644;DHT22;1838;50.742;7.158;2024-01-16T03:34:20;2.40;99.90
3644;DHT22;1838;50.742;7.158;2024-01-16T03:36:46;2.40;99.90
3644;DHT22;1838;50.742;7.158;2024-01-16T03:39:11;2.40;99.90
3644;DHT22;1838;50.742;7.158;2024-01-16T03:41:37;2.50;99.90
3644;DHT22;1838;50.742;7.158;2024-01-16T03:44:03;2.50;99.90
3644;DHT22;1838;50.742;7.158;2024-01-16T03:46:28;2.40;99.90
3644;DHT22;1838;50.742;7.158;2024-01-16T03:48:54;2.50;99.90
3644;DHT22;1838;50.742;7.158;2024-01-16T03:51:20;2.50;99.90
3644;DHT22;1838;50.742;7.158;2024-01-16T03:53:45;2.40;99.90
3644;DHT22;1838;50.742;7.158;2024-01-16T03:56:11;2.40;99.90
3644;DHT22;1838;50.742;7.158;2024-01-16T03:58:37;2.40;99.90
3644;DHT22;1838;50.742;7.158;2024-01-16T04:01:03;2.40;99.90
3644;DHT22;1838;50.742;7.158;2024-01-16T04:03:29;2.40;99.90
3644;DHT22;1838;50.742;7.158;2024-01-16T04:05:54;2.30;99.90
3644;DHT22;1838;50.742;7.158;2024-01-16T04:08:20;2.20;99.90
3644;DHT22;1838;50.742;7.158;2024-01-16T04:10:45;2.30;99.90
3644;DHT22;1838;50.742;7.158;2024-01-16T04:13:11;2.30;99.90
3644;DHT22;1838;50.742;7.158;2024-01-16T04:15:39;2.30;99.90
3644;DHT22;1838;50.742;7.158;2024-01-16T04:18:06;2.30;99.90
3644;DHT22;1838;50.742;7.158;2024-01-16T04:20:31;2.30;99.90
3644;DHT22;1838;50.742;7.158;2024-01-16T04:22:57;2.30;99.90
3644;DHT22;1838;50.742;7.158;2024-01-16T04:25:23;2.30;99.90
3644;DHT22;1838;50.742;7.158;2024-01-16T04:27:49;2.30;99.90
3644;DHT22;1838;50.742;7.158;2024-01-16T04:30:14;2.30;99.90
3644;DHT22;1838;50.742;7.158;2024-01-16T04:32:40;2.30;99.90
3644;DHT22;1838;50.742;7.158;2024-01-16T04:35:06;2.30;99.90
3644;DHT22;1838;50.742;7.158;2024-01-16T04:37:31;2.40;99.90
3644;DHT22;1838;50.742;7.158;2024-01-16T04:39:57;2.40;99.90
3644;DHT22;1838;50.742;7.158;2024-01-16T04:42:24;2.60;99.90
3644;DHT22;1838;50.742;7.158;2024-01-16T04:44:49;2.50;99.90
3644;DHT22;1838;50.742;7.158;2024-01-16T04:47:15;2.50;99.90
3644;DHT22;1838;50.742;7.158;2024-01-16T04:49:42;2.50;99.90
3644;DHT22;1838;50.742;7.158;2024-01-16T04:52:07;2.50;99.90
3644;DHT22;1838;50.742;7.158;2024-01-16T04:54:33;2.50;99.90
3644;DHT22;1838;50.742;7.158;2024-01-16T04:56:58;2.50;99.90
3644;DHT22;1838;50.742;7.158;2024-01-16T04:59:24;2.40;99.90
3644;DHT22;1838;50.742;7.158;2024-01-16T05:01:50;2.40;99.90
3644;DHT22;1838;50.742;7.158;2024-01-16T05:04:16;2.50;99.90
3644;DHT22;1838;50.742;7.158;2024-01-16T05:06:42;2.50;99.90
3644;DHT22;1838;50.742;7.158;2024-01-16T05:09:07;2.50;99.90
3644;DHT22;1838;50.742;7.158;2024-01-16T05:11:34;2.60;99.90
3644;DHT22;1838;50.742;7.158;2024-01-16T05:14:00;2.60;99.90
3644;DHT22;1838;50.742;7.158;2024-01-16T05:16:25;2.50;99.90
3644;DHT22;1838;50.742;7.158;2024-01-16T05:18:52;2.40;99.90
3644;DHT22;1838;50.742;7.158;2024-01-16T05:21:17;2.50;99.90
3644;DHT22;1838;50.742;7.158;2024-01-16T05:23:43;2.50;99.90
3644;DHT22;1838;50.742;7.158;2024-01-16T05:26:08;2.50;99.90
3644;DHT22;1838;50.742;7.158;2024-01-16T05:28:34;2.50;99.90
3644;DHT22;1838;50.742;7.158;2024-01-16T05:31:00;2.40;99.90
3644;DHT22;1838;50.742;7.158;2024-01-16T05:33:25;2.40;99.90
3644;DHT22;1838;50.742;7.158;2024-01-16T05:35:51;2.40;99.90
3644;DHT22;1838;50.742;7.158;2024-01-16T05:38:16;2.50;99.90
3644;DHT22;1838;50.742;7.158;2024-01-16T05:40:42;2.50;99.90
3644;DHT22;1838;50.742;7.158;2024-01-16T05:43:08;2.50;99.90
3644;DHT22;1838;50.742;7.158;2024-01-16T05:45:33;2.50;99.90
3644;DHT22;1838;50.742;7.158;2024-01-16T05:47:59;2.50;99.90
3644;DHT22;1838;50.742;7.158;2024-01-16T05:50:24;2.60;99.90
3644;DHT22;1838;50.742;7.158;2024-01-16T05:52:50;2.50;99.90
3644;DHT22;1838;50.742;7.158;2024-01-16T05:55:15;2.60;99.90
3644;DHT22;1838;50.742;7.158;2024-01-16T05:57:41;2.60;99.90
3644;DHT22;1838;50.742;7.158;2024-01-16T06:00:09;2.60;99.90
3644;DHT22;1838;50.742;7.158;2024-01-16T06:02:35;2.60;99.90
3644;DHT22;1838;50.742;7.158;2024-01-16T06:05:00;2.60;99.90
3644;DHT22;1838;50.742;7.158;2024-01-16T06:07:26;2.70;99.90
3644;DHT22;1838;50.742;7.158;2024-01-16T06:09:51;2.70;99.90
3644;DHT22;1838;50.742;7.158;2024-01-16T06:12:17;2.70;99.90
3644;DHT22;1838;50.742;7.158;2024-01-16T06:14:42;2.80;99.90
3644;DHT22;1838;50.742;7.158;2024-01-16T06:17:08;2.80;99.90
3644;DHT22;1838;50.742;7.158;2024-01-16T06:19:33;2.90;99.90
3644;DHT22;1838;50.742;7.158;2024-01-16T06:21:59;2.90;99.90
3644;DHT22;1838;50.742;7.158;2024-01-16T06:24:25;2.90;99.90
3644;DHT22;1838;50.742;7.158;2024-01-16T06:26:51;2.90;99.90
3644;DHT22;1838;50.742;7.158;2024-01-16T06:29:16;3.00;99.90
3644;DHT22;1838;50.742;7.158;2024-01-16T06:31:42;3.00;99.90
3644;DHT22;1838;50.742;7.158;2024-01-16T06:34:08;3.00;99.90
3644;DHT22;1838;50.742;7.158;2024-01-16T06:36:34;3.00;99.90
3644;DHT22;1838;50.742;7.158;2024-01-16T06:38:59;3.00;99.90
3644;DHT22;1838;50.742;7.158;2024-01-16T06:41:25;2.90;99.90
3644;DHT22;1838;50.742;7.158;2024-01-16T06:43:50;2.90;99.90
3644;DHT22;1838;50.742;7.158;2024-01-16T06:46:16;2.90;99.90
3644;DHT22;1838;50.742;7.158;2024-01-16T06:48:41;2.90;99.90
3644;DHT22;1838;50.742;7.158;2024-01-16T06:51:07;2.90;99.90
3644;DHT22;1838;50.742;7.158;2024-01-16T06:53:33;2.90;99.90
3644;DHT22;1838;50.742;7.158;2024-01-16T06:55:59;2.90;99.90
3644;DHT22;1838;50.742;7.158;2024-01-16T06:58:24;2.80;99.90
3644;DHT22;1838;50.742;7.158;2024-01-16T07:00:50;2.80;99.90
3644;DHT22;1838;50.742;7.158;2024-01-16T07:03:15;2.70;99.90
3644;DHT22;1838;50.742;7.158;2024-01-16T07:05:42;2.70;99.90
3644;DHT22;1838;50.742;7.158;2024-01-16T07:08:09;2.70;99.90
3644;DHT22;1838;50.742;7.158;2024-01-16T07:10:34;2.70;99.90
3644;DHT22;1838;50.742;7.158;2024-01-16T07:13:00;2.60;99.90
3644;DHT22;1838;50.742;7.158;2024-01-16T07:15:26;2.70;99.90
3644;DHT22;1838;50.742;7.158;2024-01-16T07:17:52;2.70;99.90
3644;DHT22;1838;50.742;7.158;2024-01-16T07:20:17;2.70;99.90
3644;DHT22;1838;50.742;7.158;2024-01-16T07:22:43;2.70;99.90
3644;DHT22;1838;50.742;7.158;2024-01-16T07:25:09;2.70;99.90
3644;DHT22;1838;50.742;7.158;2024-01-16T07:27:35;2.70;99.90
3644;DHT22;1838;50.742;7.158;2024-01-16T07:30:01;2.70;99.90
3644;DHT22;1838;50.742;7.158;2024-01-16T07:32:29;2.70;99.90
3644;DHT22;1838;50.742;7.158;2024-01-16T07:34:55;2.60;99.90
3644;DHT22;1838;50.742;7.158;2024-01-16T07:37:20;2.50;99.90
3644;DHT22;1838;50.742;7.158;2024-01-16T07:39:46;2.50;99.90
3644;DHT22;1838;50.742;7.158;2024-01-16T07:42:12;2.50;99.90
3644;DHT22;1838;50.742;7.158;2024-01-16T07:44:37;2.50;99.90
3644;DHT22;1838;50.742;7.158;2024-01-16T07:47:03;2.40;99.90
3644;DHT22;1838;50.742;7.158;2024-01-16T07:49:29;2.40;99.90
3644;DHT22;1838;50.742;7.158;2024-01-16T07:51:54;2.40;99.90
3644;DHT22;1838;50.742;7.158;2024-01-16T07:54:20;2.40;99.90
3644;DHT22;1838;50.742;7.158;2024-01-16T07:56:45;2.30;99.90
3644;DHT22;1838;50.742;7.158;2024-01-16T07:59:11;2.30;99.90
3644;DHT22;1838;50.742;7.158;2024-01-16T08:01:37;2.30;99.90
3644;DHT22;1838;50.742;7.158;2024-01-16T08:04:03;2.30;99.90
3644;DHT22;1838;50.742;7.158;2024-01-16T08:06:29;2.30;99.90
3644;DHT22;1838;50.742;7.158;2024-01-16T08:08:55;2.30;99.90
3644;DHT22;1838;50.742;7.158;2024-01-16T08:11:20;2.20;99.90
3644;DHT22;1838;50.742;7.158;2024-01-16T08:13:47;2.20;99.90
3644;DHT22;1838;50.742;7.158;2024-01-16T08:16:12;2.20;99.90
3644;DHT22;1838;50.742;7.158;2024-01-16T08:18:38;2.20;99.90
3644;DHT22;1838;50.742;7.158;2024-01-16T08:21:03;2.10;99.90
3644;DHT22;1838;50.742;7.158;2024-01-16T08:23:29;2.20;99.90
3644;DHT22;1838;50.742;7.158;2024-01-16T08:25:54;2.10;99.90
3644;DHT22;1838;50.742;7.158;2024-01-16T08:28:20;2.10;99.90
3644;DHT22;1838;50.742;7.158;2024-01-16T08:30:46;2.10;99.90
3644;DHT22;1838;50.742;7.158;2024-01-16T08:33:12;2.00;99.90
3644;DHT22;1838;50.742;7.158;2024-01-16T08:35:40;2.00;99.90
3644;DHT22;1838;50.742;7.158;2024-01-16T08:38:06;2.00;99.90
3644;DHT22;1838;50.742;7.158;2024-01-16T08:40:31;2.00;99.90
3644;DHT22;1838;50.742;7.158;2024-01-16T08:42:57;2.00;99.90
3644;DHT22;1838;50.742;7.158;2024-01-16T08:45:23;2.10;99.90
3644;DHT22;1838;50.742;7.158;2024-01-16T08:47:51;2.10;99.90
3644;DHT22;1838;50.742;7.158;2024-01-16T08:50:17;2.10;99.90
3644;DHT22;1838;50.742;7.158;2024-01-16T08:52:42;2.10;99.90
3644;DHT22;1838;50.742;7.158;2024-01-16T08:55:08;2.10;99.90
3644;DHT22;1838;50.742;7.158;2024-01-16T08:57:37;2.20;99.90
3644;DHT22;1838;50.742;7.158;2024-01-16T09:00:07;2.20;99.90
3644;DHT22;1838;50.742;7.158;2024-01-16T09:02:36;2.20;99.90
3644;DHT22;1838;50.742;7.158;2024-01-16T09:05:02;2.20;99.90
3644;DHT22;1838;50.742;7.158;2024-01-16T09:07:28;2.20;99.90
3644;DHT22;1838;50.742;7.158;2024-01-16T09:09:53;2.30;99.90
3644;DHT22;1838;50.742;7.158;2024-01-16T09:12:19;2.30;99.90
3644;DHT22;1838;50.742;7.158;2024-01-16T09:14:45;2.30;99.90
3644;DHT22;1838;50.742;7.158;2024-01-16T09:17:11;2.30;99.90
3644;DHT22;1838;50.742;7.158;2024-01-16T09:19:36;2.30;99.90
3644;DHT22;1838;50.742;7.158;2024-01-16T09:22:02;2.40;99.90
3644;DHT22;1838;50.742;7.158;2024-01-16T09:24:29;2.20;99.90
3644;DHT22;1838;50.742;7.158;2024-01-16T09:26:54;2.20;99.90
3644;DHT22;1838;50.742;7.158;2024-01-16T09:29:20;2.30;99.90
3644;DHT22;1838;50.742;7.158;2024-01-16T09:31:47;2.30;99.90
3644;DHT22;1838;50.742;7.158;2024-01-16T09:34:13;2.20;99.90
3644;DHT22;1838;50.742;7.158;2024-01-16T09:36:39;2.30;99.90
3644;DHT22;1838;50.742;7.158;2024-01-16T09:39:06;2.30;99.90
3644;DHT22;1838;50.742;7.158;2024-01-16T09:41:39;2.40;99.90
3644;DHT22;1838;50.742;7.158;2024-01-16T09:44:05;2.50;99.90
3644;DHT22;1838;50.742;7.158;2024-01-16T09:46:32;2.50;99.90
3644;DHT22;1838;50.742;7.158;2024-01-16T09:49:00;2.50;99.90
3644;DHT22;1838;50.742;7.158;2024-01-16T09:51:28;2.50;99.90
3644;DHT22;1838;50.742;7.158;2024-01-16T09:53:53;2.50;99.90
3644;DHT22;1838;50.742;7.158;2024-01-16T09:56:22;2.60;99.90
3644;DHT22;1838;50.742;7.158;2024-01-16T09:58:54;2.70;99.90
3644;DHT22;1838;50.742;7.158;2024-01-16T10:01:21;2.80;99.90
3644;DHT22;1838;50.742;7.158;2024-01-16T10:03:48;2.80;99.90
3644;DHT22;1838;50.742;7.158;2024-01-16T10:06:15;2.90;99.90
3644;DHT22;1838;50.742;7.158;2024-01-16T10:08:43;2.80;99.90
3644;DHT22;1838;50.742;7.158;2024-01-16T10:11:09;3.00;99.90
3644;DHT22;1838;50.742;7.158;2024-01-16T10:13:35;3.00;99.90
3644;DHT22;1838;50.742;7.158;2024-01-16T10:16:01;3.10;99.90
3644;DHT22;1838;50.742;7.158;2024-01-16T10:18:29;3.10;99.90
3644;DHT22;1838;50.742;7.158;2024-01-16T10:20:59;3.20;99.90
3644;DHT22;1838;50.742;7.158;2024-01-16T10:23:26;3.10;99.90
3644;DHT22;1838;50.742;7.158;2024-01-16T10:26:11;3.20;99.90
3644;DHT22;1838;50.742;7.158;2024-01-16T10:28:41;3.10;99.90
3644;DHT22;1838;50.742;7.158;2024-01-16T10:31:11;3.10;99.90
3644;DHT22;1838;50.742;7.158;2024-01-16T10:33:37;3.20;99.90
3644;DHT22;1838;50.742;7.158;2024-01-16T10:38:35;3.30;99.90
3644;DHT22;1838;50.742;7.158;2024-01-16T10:41:08;3.30;99.90
3644;DHT22;1838;50.742;7.158;2024-01-16T10:43:34;3.30;99.90
3644;DHT22;1838;50.742;7.158;2024-01-16T10:46:11;3.20;99.90
3644;DHT22;1838;50.742;7.158;2024-01-16T10:48:41;3.20;99.90
3644;DHT22;1838;50.742;7.158;2024-01-16T10:51:07;3.20;99.90
3644;DHT22;1838;50.742;7.158;2024-01-16T10:53:34;3.40;99.90
3644;DHT22;1838;50.742;7.158;2024-01-16T10:56:01;3.30;99.90
3644;DHT22;1838;50.742;7.158;2024-01-16T10:58:29;3.40;99.90
3644;DHT22;1838;50.742;7.158;2024-01-16T11:00:57;3.50;99.90
3644;DHT22;1838;50.742;7.158;2024-01-16T11:03:39;3.50;99.90
3644;DHT22;1838;50.742;7.158;2024-01-16T11:06:06;3.50;99.90
3644;DHT22;1838;50.742;7.158;2024-01-16T11:08:35;3.50;99.90
3644;DHT22;1838;50.742;7.158;2024-01-16T11:11:02;3.50;99.90
3644;DHT22;1838;50.742;7.158;2024-01-16T11:13:31;3.50;99.90
3644;DHT22;1838;50.742;7.158;2024-01-16T11:15:58;3.40;99.90
3644;DHT22;1838;50.742;7.158;2024-01-16T11:18:25;3.40;99.90
3644;DHT22;1838;50.742;7.158;2024-01-16T11:20:52;3.40;99.90
3644;DHT22;1838;50.742;7.158;2024-01-16T11:23:18;3.40;99.90
3644;DHT22;1838;50.742;7.158;2024-01-16T11:25:43;3.50;99.90
3644;DHT22;1838;50.742;7.158;2024-01-16T11:28:13;3.50;99.90
3644;DHT22;1838;50.742;7.158;2024-01-16T11:30:39;3.60;99.90
3644;DHT22;1838;50.742;7.158;2024-01-16T11:33:06;3.60;99.90
3644;DHT22;1838;50.742;7.158;2024-01-16T11:35:36;3.60;99.90
3644;DHT22;1838;50.742;7.158;2024-01-16T11:38:18;3.50;99.90
3644;DHT22;1838;50.742;7.158;2024-01-16T11:40:46;3.60;99.90
3644;DHT22;1838;50.742;7.158;2024-01-16T11:45:57;3.80;99.90
3644;DHT22;1838;50.742;7.158;2024-01-16T11:48:24;3.80;99.90
3644;DHT22;1838;50.742;7.158;2024-01-16T11:50:49;3.90;99.90
3644;DHT22;1838;50.742;7.158;2024-01-16T11:58:53;4.20;99.90
3644;DHT22;1838;50.742;7.158;2024-01-16T12:01:22;4.30;99.90
3644;DHT22;1838;50.742;7.158;2024-01-16T12:04:04;4.50;99.90
3644;DHT22;1838;50.742;7.158;2024-01-16T12:06:30;4.50;99.90
3644;DHT22;1838;50.742;7.158;2024-01-16T12:09:14;4.70;99.90
3644;DHT22;1838;50.742;7.158;2024-01-16T12:11:40;4.70;99.90
3644;DHT22;1838;50.742;7.158;2024-01-16T12:14:08;4.70;99.90
3644;DHT22;1838;50.742;7.158;2024-01-16T12:16:34;4.70;99.90
3644;DHT22;1838;50.742;7.158;2024-01-16T12:19:09;4.80;99.90
3644;DHT22;1838;50.742;7.158;2024-01-16T12:21:39;4.80;99.90
3644;DHT22;1838;50.742;7.158;2024-01-16T12:24:06;4.80;99.90
3644;DHT22;1838;50.742;7.158;2024-01-16T12:26:32;4.80;99.90
3644;DHT22;1838;50.742;7.158;2024-01-16T12:28:58;4.70;99.90
3644;DHT22;1838;50.742;7.158;2024-01-16T12:31:24;4.80;99.90
3644;DHT22;1838;50.742;7.158;2024-01-16T12:33:50;4.80;99.90
3644;DHT22;1838;50.742;7.158;2024-01-16T12:36:16;4.80;99.90
3644;DHT22;1838;50.742;7.158;2024-01-16T12:38:42;4.80;99.90
3644;DHT22;1838;50.742;7.158;2024-01-16T12:41:10;4.60;99.90
3644;DHT22;1838;50.742;7.158;2024-01-16T12:43:36;4.60;99.90
3644;DHT22;1838;50.742;7.158;2024-01-16T12:46:02;4.70;99.90
3644;DHT22;1838;50.742;7.158;2024-01-16T12:48:28;4.70;99.90
3644;DHT22;1838;50.742;7.158;2024-01-16T12:51:01;4.70;99.90
3644;DHT22;1838;50.742;7.158;2024-01-16T12:53:32;4.70;99.90
3644;DHT22;1838;50.742;7.158;2024-01-16T12:56:00;4.70;99.90
3644;DHT22;1838;50.742;7.158;2024-01-16T12:58:32;4.70;99.90
3644;DHT22;1838;50.742;7.158;2024-01-16T13:01:23;4.60;99.90
3644;DHT22;1838;50.742;7.158;2024-01-16T13:03:52;4.60;99.90
3644;DHT22;1838;50.742;7.158;2024-01-16T13:06:19;4.50;99.90
3644;DHT22;1838;50.742;7.158;2024-01-16T13:08:46;4.50;99.90
3644;DHT22;1838;50.742;7.158;2024-01-16T13:11:13;4.50;99.90
3644;DHT22;1838;50.742;7.158;2024-01-16T13:13:40;4.40;99.90
3644;DHT22;1838;50.742;7.158;2024-01-16T13:16:07;4.50;99.90
3644;DHT22;1838;50.742;7.158;2024-01-16T13:18:32;4.50;99.90
3644;DHT22;1838;50.742;7.158;2024-01-16T13:20:59;4.50;99.90
3644;DHT22;1838;50.742;7.158;2024-01-16T13:23:25;4.50;99.90
3644;DHT22;1838;50.742;7.158;2024-01-16T13:25:51;4.40;99.90
3644;DHT22;1838;50.742;7.158;2024-01-16T13:28:19;4.40;99.90
3644;DHT22;1838;50.742;7.158;2024-01-16T13:30:46;4.50;99.90
3644;DHT22;1838;50.742;7.158;2024-01-16T13:33:13;4.50;99.90
3644;DHT22;1838;50.742;7.158;2024-01-16T13:35:43;4.50;99.90
3644;DHT22;1838;50.742;7.158;2024-01-16T13:38:10;4.50;99.90
3644;DHT22;1838;50.742;7.158;2024-01-16T13:40:36;4.50;99.90
3644;DHT22;1838;50.742;7.158;2024-01-16T13:43:05;4.60;99.90
3644;DHT22;1838;50.742;7.158;2024-01-16T13:45:32;4.60;99.90
3644;DHT22;1838;50.742;7.158;2024-01-16T13:47:57;4.60;99.90
3644;DHT22;1838;50.742;7.158;2024-01-16T13:50:23;4.60;99.90
3644;DHT22;1838;50.742;7.158;2024-01-16T13:52:49;4.70;99.90
3644;DHT22;1838;50.742;7.158;2024-01-16T13:55:15;4.70;99.90
3644;DHT22;1838;50.742;7.158;2024-01-16T13:57:41;4.70;99.90
3644;DHT22;1838;50.742;7.158;2024-01-16T14:00:08;4.60;99.90
3644;DHT22;1838;50.742;7.158;2024-01-16T14:02:39;4.70;99.90
3644;DHT22;1838;50.742;7.158;2024-01-16T14:05:09;4.70;99.90
3644;DHT22;1838;50.742;7.158;2024-01-16T14:07:41;4.70;99.90
3644;DHT22;1838;50.742;7.158;2024-01-16T14:10:10;4.60;99.90
3644;DHT22;1838;50.742;7.158;2024-01-16T14:12:40;4.50;99.90
3644;DHT22;1838;50.742;7.158;2024-01-16T14:15:14;4.50;99.90
3644;DHT22;1838;50.742;7.158;2024-01-16T14:17:46;4.50;99.90
3644;DHT22;1838;50.742;7.158;2024-01-16T14:20:26;4.40;99.90
3644;DHT22;1838;50.742;7.158;2024-01-16T14:22:52;4.30;99.90
3644;DHT22;1838;50.742;7.158;2024-01-16T14:25:19;4.30;99.90
3644;DHT22;1838;50.742;7.158;2024-01-16T14:27:55;4.20;99.90
3644;DHT22;1838;50.742;7.158;2024-01-16T14:30:22;4.20;99.90
3644;DHT22;1838;50.742;7.158;2024-01-16T14:32:47;4.20;99.90
3644;DHT22;1838;50.742;7.158;2024-01-16T14:35:14;4.30;99.90
3644;DHT22;1838;50.742;7.158;2024-01-16T14:37:42;4.30;99.90
3644;DHT22;1838;50.742;7.158;2024-01-16T14:40:08;4.40;99.90
3644;DHT22;1838;50.742;7.158;2024-01-16T14:42:39;4.30;99.90
3644;DHT22;1838;50.742;7.158;2024-01-16T14:45:04;4.20;99.90
3644;DHT22;1838;50.742;7.158;2024-01-16T14:47:31;4.30;99.90
3644;DHT22;1838;50.742;7.158;2024-01-16T14:49:56;4.20;99.90
3644;DHT22;1838;50.742;7.158;2024-01-16T14:52:23;4.10;99.90
3644;DHT22;1838;50.742;7.158;2024-01-16T14:54:48;3.80;99.90
3644;DHT22;1838;50.742;7.158;2024-01-16T14:57:15;3.80;99.90
3644;DHT22;1838;50.742;7.158;2024-01-16T14:59:41;3.80;99.90
3644;DHT22;1838;50.742;7.158;2024-01-16T15:02:07;3.40;99.90
3644;DHT22;1838;50.742;7.158;2024-01-16T15:04:41;3.50;99.90
3644;DHT22;1838;50.742;7.158;2024-01-16T15:07:07;3.40;99.90
3644;DHT22;1838;50.742;7.158;2024-01-16T15:09:33;3.40;99.90
3644;DHT22;1838;50.742;7.158;2024-01-16T15:12:05;3.40;99.90
3644;DHT22;1838;50.742;7.158;2024-01-16T15:14:32;3.40;99.90
3644;DHT22;1838;50.742;7.158;2024-01-16T15:16:58;3.40;99.90
3644;DHT22;1838;50.742;7.158;2024-01-16T15:19:23;3.40;99.90
3644;DHT22;1838;50.742;7.158;2024-01-16T15:21:49;3.40;99.90
3644;DHT22;1838;50.742;7.158;2024-01-16T15:24:14;3.40;99.90
3644;DHT22;1838;50.742;7.158;2024-01-16T15:26:45;3.40;99.90
3644;DHT22;1838;50.742;7.158;2024-01-16T15:29:10;3.20;99.90
3644;DHT22;1838;50.742;7.158;2024-01-16T15:31:37;3.10;99.90
3644;DHT22;1838;50.742;7.158;2024-01-16T15:34:03;3.00;99.90
3644;DHT22;1838;50.742;7.158;2024-01-16T15:36:28;3.00;99.90
3644;DHT22;1838;50.742;7.158;2024-01-16T15:38:54;2.90;99.90
3644;DHT22;1838;50.742;7.158;2024-01-16T15:41:19;2.90;99.90
3644;DHT22;1838;50.742;7.158;2024-01-16T15:43:45;2.90;99.90
3644;DHT22;1838;50.742;7.158;2024-01-16T15:46:11;2.80;99.90
3644;DHT22;1838;50.742;7.158;2024-01-16T15:48:39;2.70;99.90
3644;DHT22;1838;50.742;7.158;2024-01-16T15:51:06;2.70;99.90
3644;DHT22;1838;50.742;7.158;2024-01-16T15:53:34;2.50;99.90
3644;DHT22;1838;50.742;7.158;2024-01-16T15:56:00;2.60;99.90
3644;DHT22;1838;50.742;7.158;2024-01-16T15:58:25;2.50;99.90
3644;DHT22;1838;50.742;7.158;2024-01-16T16:00:51;2.40;99.90
3644;DHT22;1838;50.742;7.158;2024-01-16T16:03:16;2.40;99.90
3644;DHT22;1838;50.742;7.158;2024-01-16T16:05:43;2.30;99.90
3644;DHT22;1838;50.742;7.158;2024-01-16T16:08:09;2.30;99.90
3644;DHT22;1838;50.742;7.158;2024-01-16T16:10:35;2.20;99.90
3644;DHT22;1838;50.742;7.158;2024-01-16T16:13:01;2.10;99.90
3644;DHT22;1838;50.742;7.158;2024-01-16T16:15:27;2.10;99.90
3644;DHT22;1838;50.742;7.158;2024-01-16T16:17:54;2.00;99.90
3644;DHT22;1838;50.742;7.158;2024-01-16T16:20:20;1.90;99.90
3644;DHT22;1838;50.742;7.158;2024-01-16T16:22:49;1.80;99.90
3644;DHT22;1838;50.742;7.158;2024-01-16T16:25:16;1.70;99.90